sensor_id;sensor_type;location;lat;lon;timestamp;P1;durP1;ratioP1;P2;durP2;ratioP2
12171;SDS011;6149;52.418;13.668;2023-10-13T00:00:33;5.30;;;3.53;;
12171;SDS011;6149;52.418;13.668;2023-10-13T00:03:04;7.80;;;3.57;;
12171;SDS011;6149;52.418;13.668;2023-10-13T00:05:32;7.03;;;3.77;;
12171;SDS011;6149;52.418;13.668;2023-10-13T00:08:03;7.17;;;3.97;;
12171;SDS011;6149;52.418;13.668;2023-10-13T00:10:32;6.77;;;3.60;;
12171;SDS011;6149;52.418;13.668;2023-10-13T00:12:59;6.73;;;3.23;;
12171;SDS011;6149;52.418;13.668;2023-10-13T00:15:38;7.37;;;3.23;;
12171;SDS011;6149;52.418;13.668;2023-10-13T00:18:11;8.07;;;3.43;;
12171;SDS011;6149;52.418;13.668;2023-10-13T00:20:40;5.00;;;3.30;;
12171;SDS011;6149;52.418;13.668;2023-10-13T00:23:13;7.23;;;4.07;;
12171;SDS011;6149;52.418;13.668;2023-10-13T00:25:41;5.43;;;3.40;;
12171;SDS011;6149;52.418;13.668;2023-10-13T00:28:15;5.13;;;3.40;;
12171;SDS011;6149;52.418;13.668;2023-10-13T00:30:49;5.03;;;3.37;;
12171;SDS011;6149;52.418;13.668;2023-10-13T00:33:25;5.67;;;3.50;;
12171;SDS011;6149;52.418;13.668;2023-10-13T00:35:53;5.37;;;3.30;;
12171;SDS011;6149;52.418;13.668;2023-10-13T00:38:25;5.80;;;3.37;;
12171;SDS011;6149;52.418;13.668;2023-10-13T00:40:54;7.57;;;3.50;;
12171;SDS011;6149;52.418;13.668;2023-10-13T00:43:32;5.50;;;3.80;;
12171;SDS011;6149;52.418;13.668;2023-10-13T00:46:02;6.80;;;3.70;;
12171;SDS011;6149;52.418;13.668;2023-10-13T00:48:35;6.07;;;3.33;;
12171;SDS011;6149;52.418;13.668;2023-10-13T00:51:19;4.13;;;3.60;;
12171;SDS011;6149;52.418;13.668;2023-10-13T00:53:57;6.70;;;3.57;;
12171;SDS011;6149;52.418;13.668;2023-10-13T00:56:27;6.93;;;4.03;;
12171;SDS011;6149;52.418;13.668;2023-10-13T00:58:58;7.30;;;3.83;;
12171;SDS011;6149;52.418;13.668;2023-10-13T01:01:27;8.77;;;4.50;;
12171;SDS011;6149;52.418;13.668;2023-10-13T01:04:04;6.33;;;3.77;;
12171;SDS011;6149;52.418;13.668;2023-10-13T01:06:33;7.43;;;4.27;;
12171;SDS011;6149;52.418;13.668;2023-10-13T01:09:03;6.03;;;4.13;;
12171;SDS011;6149;52.418;13.668;2023-10-13T01:11:39;5.50;;;3.60;;
12171;SDS011;6149;52.418;13.668;2023-10-13T01:14:09;7.67;;;4.10;;
12171;SDS011;6149;52.418;13.668;2023-10-13T01:16:37;5.10;;;3.60;;
12171;SDS011;6149;52.418;13.668;2023-10-13T01:19:12;6.77;;;3.90;;
12171;SDS011;6149;52.418;13.668;2023-10-13T01:21:39;7.57;;;4.20;;
12171;SDS011;6149;52.418;13.668;2023-10-13T01:24:08;9.40;;;4.37;;
12171;SDS011;6149;52.418;13.668;2023-10-13T01:26:36;8.17;;;4.90;;
12171;SDS011;6149;52.418;13.668;2023-10-13T01:29:05;7.83;;;4.60;;
12171;SDS011;6149;52.418;13.668;2023-10-13T01:31:41;9.47;;;5.10;;
12171;SDS011;6149;52.418;13.668;2023-10-13T01:34:12;10.80;;;5.27;;
12171;SDS011;6149;52.418;13.668;2023-10-13T01:36:45;8.80;;;5.30;;
12171;SDS011;6149;52.418;13.668;2023-10-13T01:39:17;11.77;;;6.17;;
12171;SDS011;6149;52.418;13.668;2023-10-13T01:41:44;12.70;;;6.40;;
12171;SDS011;6149;52.418;13.668;2023-10-13T01:44:12;13.60;;;6.30;;
12171;SDS011;6149;52.418;13.668;2023-10-13T01:46:40;12.27;;;7.27;;
12171;SDS011;6149;52.418;13.668;2023-10-13T01:49:08;10.80;;;6.90;;
12171;SDS011;6149;52.418;13.668;2023-10-13T01:51:35;10.67;;;6.50;;
12171;SDS011;6149;52.418;13.668;2023-10-13T01:54:04;10.40;;;6.90;;
12171;SDS011;6149;52.418;13.668;2023-10-13T01:56:38;11.30;;;7.77;;
12171;SDS011;6149;52.418;13.668;2023-10-13T01:59:07;10.17;;;7.03;;
12171;SDS011;6149;52.418;13.668;2023-10-13T02:01:35;10.90;;;7.80;;
12171;SDS011;6149;52.418;13.668;2023-10-13T02:04:02;9.50;;;6.70;;
12171;SDS011;6149;52.418;13.668;2023-10-13T02:06:30;12.33;;;7.63;;
12171;SDS011;6149;52.418;13.668;2023-10-13T02:08:59;10.00;;;6.67;;
12171;SDS011;6149;52.418;13.668;2023-10-13T02:11:39;11.70;;;7.07;;
12171;SDS011;6149;52.418;13.668;2023-10-13T02:14:07;8.47;;;6.53;;
12171;SDS011;6149;52.418;13.668;2023-10-13T02:16:37;10.97;;;7.07;;
12171;SDS011;6149;52.418;13.668;2023-10-13T02:19:05;12.00;;;7.20;;
12171;SDS011;6149;52.418;13.668;2023-10-13T02:21:33;9.17;;;7.37;;
12171;SDS011;6149;52.418;13.668;2023-10-13T02:24:09;13.50;;;7.77;;
12171;SDS011;6149;52.418;13.668;2023-10-13T02:26:40;9.73;;;6.63;;
12171;SDS011;6149;52.418;13.668;2023-10-13T02:29:07;10.87;;;6.63;;
12171;SDS011;6149;52.418;13.668;2023-10-13T02:31:34;11.90;;;6.97;;
12171;SDS011;6149;52.418;13.668;2023-10-13T02:34:02;10.33;;;7.47;;
12171;SDS011;6149;52.418;13.668;2023-10-13T02:36:33;7.73;;;6.63;;
12171;SDS011;6149;52.418;13.668;2023-10-13T02:39:09;11.13;;;7.40;;
12171;SDS011;6149;52.418;13.668;2023-10-13T02:41:36;11.30;;;7.47;;
12171;SDS011;6149;52.418;13.668;2023-10-13T02:44:09;10.10;;;8.13;;
12171;SDS011;6149;52.418;13.668;2023-10-13T02:46:38;11.33;;;7.50;;
12171;SDS011;6149;52.418;13.668;2023-10-13T02:49:05;16.10;;;8.70;;
12171;SDS011;6149;52.418;13.668;2023-10-13T02:51:37;14.17;;;9.70;;
12171;SDS011;6149;52.418;13.668;2023-10-13T02:54:07;11.37;;;8.10;;
12171;SDS011;6149;52.418;13.668;2023-10-13T02:56:35;14.30;;;8.13;;
12171;SDS011;6149;52.418;13.668;2023-10-13T02:59:02;15.40;;;9.20;;
12171;SDS011;6149;52.418;13.668;2023-10-13T03:01:39;16.43;;;10.40;;
12171;SDS011;6149;52.418;13.668;2023-10-13T03:04:05;13.77;;;9.27;;
12171;SDS011;6149;52.418;13.668;2023-10-13T03:06:35;16.53;;;10.07;;
12171;SDS011;6149;52.418;13.668;2023-10-13T03:09:07;11.83;;;9.33;;
12171;SDS011;6149;52.418;13.668;2023-10-13T03:11:45;14.90;;;10.13;;
12171;SDS011;6149;52.418;13.668;2023-10-13T03:14:15;18.47;;;11.33;;
12171;SDS011;6149;52.418;13.668;2023-10-13T03:16:54;16.07;;;10.97;;
12171;SDS011;6149;52.418;13.668;2023-10-13T03:19:30;19.70;;;11.57;;
12171;SDS011;6149;52.418;13.668;2023-10-13T03:21:59;17.23;;;11.03;;
12171;SDS011;6149;52.418;13.668;2023-10-13T03:24:35;18.30;;;11.97;;
12171;SDS011;6149;52.418;13.668;2023-10-13T03:27:01;22.20;;;12.63;;
12171;SDS011;6149;52.418;13.668;2023-10-13T03:29:34;20.70;;;12.70;;
12171;SDS011;6149;52.418;13.668;2023-10-13T03:32:04;19.47;;;12.70;;
12171;SDS011;6149;52.418;13.668;2023-10-13T03:34:38;18.30;;;12.10;;
12171;SDS011;6149;52.418;13.668;2023-10-13T03:37:20;16.00;;;11.23;;
12171;SDS011;6149;52.418;13.668;2023-10-13T03:40:02;16.97;;;12.03;;
12171;SDS011;6149;52.418;13.668;2023-10-13T03:42:59;21.30;;;12.73;;
12171;SDS011;6149;52.418;13.668;2023-10-13T03:45:31;16.23;;;12.13;;
12171;SDS011;6149;52.418;13.668;2023-10-13T03:48:05;18.27;;;12.83;;
12171;SDS011;6149;52.418;13.668;2023-10-13T03:50:38;15.20;;;12.07;;
12171;SDS011;6149;52.418;13.668;2023-10-13T03:53:13;17.23;;;12.13;;
12171;SDS011;6149;52.418;13.668;2023-10-13T03:55:41;18.83;;;13.07;;
12171;SDS011;6149;52.418;13.668;2023-10-13T03:58:14;19.17;;;13.37;;
12171;SDS011;6149;52.418;13.668;2023-10-13T04:00:41;22.73;;;15.00;;
12171;SDS011;6149;52.418;13.668;2023-10-13T04:03:09;20.03;;;13.37;;
12171;SDS011;6149;52.418;13.668;2023-10-13T04:05:42;17.07;;;12.63;;
12171;SDS011;6149;52.418;13.668;2023-10-13T04:08:10;24.47;;;15.37;;
12171;SDS011;6149;52.418;13.668;2023-10-13T04:11:08;22.87;;;14.93;;
12171;SDS011;6149;52.418;13.668;2023-10-13T04:13:54;21.13;;;15.37;;
12171;SDS011;6149;52.418;13.668;2023-10-13T04:16:38;21.07;;;14.83;;
12171;SDS011;6149;52.418;13.668;2023-10-13T04:19:17;18.93;;;14.37;;
12171;SDS011;6149;52.418;13.668;2023-10-13T04:21:49;27.23;;;16.77;;
12171;SDS011;6149;52.418;13.668;2023-10-13T04:24:39;24.03;;;17.03;;
12171;SDS011;6149;52.418;13.668;2023-10-13T04:27:26;24.30;;;17.47;;
12171;SDS011;6149;52.418;13.668;2023-10-13T04:30:09;24.03;;;17.40;;
12171;SDS011;6149;52.418;13.668;2023-10-13T04:32:37;28.40;;;17.53;;
12171;SDS011;6149;52.418;13.668;2023-10-13T04:35:08;21.80;;;17.07;;
12171;SDS011;6149;52.418;13.668;2023-10-13T04:37:36;24.53;;;18.10;;
12171;SDS011;6149;52.418;13.668;2023-10-13T04:40:20;29.60;;;18.87;;
12171;SDS011;6149;52.418;13.668;2023-10-13T04:42:50;24.53;;;17.77;;
12171;SDS011;6149;52.418;13.668;2023-10-13T04:45:23;23.63;;;17.90;;
12171;SDS011;6149;52.418;13.668;2023-10-13T04:48:15;26.63;;;18.00;;
12171;SDS011;6149;52.418;13.668;2023-10-13T04:51:02;23.07;;;17.83;;
12171;SDS011;6149;52.418;13.668;2023-10-13T04:53:46;25.90;;;18.17;;
12171;SDS011;6149;52.418;13.668;2023-10-13T04:56:38;26.77;;;18.70;;
12171;SDS011;6149;52.418;13.668;2023-10-13T04:59:24;25.67;;;18.23;;
12171;SDS011;6149;52.418;13.668;2023-10-13T05:02:24;25.37;;;18.23;;
12171;SDS011;6149;52.418;13.668;2023-10-13T05:05:09;25.70;;;19.30;;
12171;SDS011;6149;52.418;13.668;2023-10-13T05:07:51;28.53;;;20.77;;
12171;SDS011;6149;52.418;13.668;2023-10-13T05:10:37;27.53;;;19.33;;
12171;SDS011;6149;52.418;13.668;2023-10-13T05:13:22;28.40;;;21.00;;
12171;SDS011;6149;52.418;13.668;2023-10-13T05:16:09;28.23;;;21.30;;
12171;SDS011;6149;52.418;13.668;2023-10-13T05:18:53;29.50;;;20.90;;
12171;SDS011;6149;52.418;13.668;2023-10-13T05:21:38;28.20;;;20.93;;
12171;SDS011;6149;52.418;13.668;2023-10-13T05:24:26;28.17;;;19.73;;
12171;SDS011;6149;52.418;13.668;2023-10-13T05:27:11;29.80;;;20.57;;
12171;SDS011;6149;52.418;13.668;2023-10-13T05:29:56;26.20;;;20.20;;
12171;SDS011;6149;52.418;13.668;2023-10-13T05:32:40;31.67;;;20.40;;
12171;SDS011;6149;52.418;13.668;2023-10-13T05:35:26;28.30;;;20.60;;
12171;SDS011;6149;52.418;13.668;2023-10-13T05:38:14;21.77;;;17.77;;
12171;SDS011;6149;52.418;13.668;2023-10-13T05:41:02;27.83;;;20.23;;
12171;SDS011;6149;52.418;13.668;2023-10-13T05:43:49;27.53;;;20.77;;
12171;SDS011;6149;52.418;13.668;2023-10-13T05:46:35;22.83;;;18.87;;
12171;SDS011;6149;52.418;13.668;2023-10-13T05:49:27;26.73;;;21.00;;
12171;SDS011;6149;52.418;13.668;2023-10-13T05:52:15;32.33;;;20.50;;
12171;SDS011;6149;52.418;13.668;2023-10-13T05:55:05;32.13;;;21.43;;
12171;SDS011;6149;52.418;13.668;2023-10-13T05:57:57;27.97;;;21.03;;
12171;SDS011;6149;52.418;13.668;2023-10-13T06:00:41;29.10;;;21.57;;
12171;SDS011;6149;52.418;13.668;2023-10-13T06:03:27;30.80;;;21.60;;
12171;SDS011;6149;52.418;13.668;2023-10-13T06:06:12;31.20;;;21.63;;
12171;SDS011;6149;52.418;13.668;2023-10-13T06:08:57;26.50;;;19.97;;
12171;SDS011;6149;52.418;13.668;2023-10-13T06:11:42;31.40;;;20.80;;
12171;SDS011;6149;52.418;13.668;2023-10-13T06:14:33;27.80;;;22.30;;
12171;SDS011;6149;52.418;13.668;2023-10-13T06:17:19;32.73;;;22.20;;
12171;SDS011;6149;52.418;13.668;2023-10-13T06:20:04;30.97;;;22.27;;
12171;SDS011;6149;52.418;13.668;2023-10-13T06:22:50;33.17;;;22.37;;
12171;SDS011;6149;52.418;13.668;2023-10-13T06:25:36;29.60;;;22.70;;
12171;SDS011;6149;52.418;13.668;2023-10-13T06:28:22;29.13;;;21.10;;
12171;SDS011;6149;52.418;13.668;2023-10-13T06:31:14;26.83;;;21.57;;
12171;SDS011;6149;52.418;13.668;2023-10-13T06:33:51;28.07;;;20.60;;
12171;SDS011;6149;52.418;13.668;2023-10-13T06:36:20;29.23;;;21.83;;
12171;SDS011;6149;52.418;13.668;2023-10-13T06:38:50;27.40;;;20.50;;
12171;SDS011;6149;52.418;13.668;2023-10-13T06:41:39;25.63;;;21.20;;
12171;SDS011;6149;52.418;13.668;2023-10-13T06:44:06;32.27;;;21.40;;
12171;SDS011;6149;52.418;13.668;2023-10-13T06:46:41;27.43;;;21.00;;
12171;SDS011;6149;52.418;13.668;2023-10-13T06:49:08;25.03;;;20.67;;
12171;SDS011;6149;52.418;13.668;2023-10-13T06:51:36;25.33;;;20.10;;
12171;SDS011;6149;52.418;13.668;2023-10-13T06:54:04;25.00;;;19.60;;
12171;SDS011;6149;52.418;13.668;2023-10-13T06:56:37;26.27;;;19.90;;
12171;SDS011;6149;52.418;13.668;2023-10-13T06:59:05;25.00;;;19.87;;
12171;SDS011;6149;52.418;13.668;2023-10-13T07:01:32;23.80;;;19.23;;
12171;SDS011;6149;52.418;13.668;2023-10-13T07:04:06;23.57;;;19.20;;
12171;SDS011;6149;52.418;13.668;2023-10-13T07:06:38;25.77;;;18.50;;
12171;SDS011;6149;52.418;13.668;2023-10-13T07:09:10;22.00;;;18.77;;
12171;SDS011;6149;52.418;13.668;2023-10-13T07:11:54;21.77;;;18.33;;
12171;SDS011;6149;52.418;13.668;2023-10-13T07:14:26;22.93;;;17.60;;
12171;SDS011;6149;52.418;13.668;2023-10-13T07:16:59;25.23;;;18.23;;
12171;SDS011;6149;52.418;13.668;2023-10-13T07:19:31;25.30;;;19.13;;
12171;SDS011;6149;52.418;13.668;2023-10-13T07:22:00;24.87;;;18.97;;
12171;SDS011;6149;52.418;13.668;2023-10-13T07:24:44;21.20;;;18.13;;
12171;SDS011;6149;52.418;13.668;2023-10-13T07:27:13;24.53;;;17.37;;
12171;SDS011;6149;52.418;13.668;2023-10-13T07:29:48;23.77;;;17.87;;
12171;SDS011;6149;52.418;13.668;2023-10-13T07:32:21;20.13;;;16.17;;
12171;SDS011;6149;52.418;13.668;2023-10-13T07:35:00;19.70;;;16.53;;
12171;SDS011;6149;52.418;13.668;2023-10-13T07:37:33;18.10;;;15.57;;
12171;SDS011;6149;52.418;13.668;2023-10-13T07:40:03;18.90;;;15.40;;
12171;SDS011;6149;52.418;13.668;2023-10-13T07:42:47;19.60;;;15.00;;
12171;SDS011;6149;52.418;13.668;2023-10-13T07:45:15;17.47;;;15.27;;
12171;SDS011;6149;52.418;13.668;2023-10-13T07:47:57;21.03;;;15.47;;
12171;SDS011;6149;52.418;13.668;2023-10-13T07:50:31;16.77;;;14.50;;
12171;SDS011;6149;52.418;13.668;2023-10-13T07:52:59;19.40;;;14.67;;
12171;SDS011;6149;52.418;13.668;2023-10-13T07:55:31;18.10;;;14.17;;
12171;SDS011;6149;52.418;13.668;2023-10-13T07:57:58;19.27;;;15.00;;
12171;SDS011;6149;52.418;13.668;2023-10-13T08:00:26;16.93;;;14.47;;
12171;SDS011;6149;52.418;13.668;2023-10-13T08:03:12;18.03;;;14.70;;
12171;SDS011;6149;52.418;13.668;2023-10-13T08:06:04;18.67;;;13.90;;
12171;SDS011;6149;52.418;13.668;2023-10-13T08:08:32;19.17;;;14.50;;
12171;SDS011;6149;52.418;13.668;2023-10-13T08:11:08;17.30;;;14.23;;
12171;SDS011;6149;52.418;13.668;2023-10-13T08:13:47;17.53;;;13.20;;
12171;SDS011;6149;52.418;13.668;2023-10-13T08:16:19;13.67;;;12.30;;
12171;SDS011;6149;52.418;13.668;2023-10-13T08:18:48;14.00;;;12.20;;
12171;SDS011;6149;52.418;13.668;2023-10-13T08:21:21;17.23;;;12.53;;
12171;SDS011;6149;52.418;13.668;2023-10-13T08:23:49;17.60;;;12.27;;
12171;SDS011;6149;52.418;13.668;2023-10-13T08:26:31;15.33;;;12.00;;
12171;SDS011;6149;52.418;13.668;2023-10-13T08:29:12;14.10;;;11.80;;
12171;SDS011;6149;52.418;13.668;2023-10-13T08:31:57;16.33;;;11.73;;
12171;SDS011;6149;52.418;13.668;2023-10-13T08:34:42;14.37;;;11.33;;
12171;SDS011;6149;52.418;13.668;2023-10-13T08:37:29;14.50;;;11.13;;
12171;SDS011;6149;52.418;13.668;2023-10-13T08:40:12;12.33;;;10.67;;
12171;SDS011;6149;52.418;13.668;2023-10-13T08:43:00;12.70;;;10.67;;
12171;SDS011;6149;52.418;13.668;2023-10-13T08:45:38;15.43;;;11.43;;
12171;SDS011;6149;52.418;13.668;2023-10-13T08:48:31;12.77;;;10.90;;
12171;SDS011;6149;52.418;13.668;2023-10-13T08:51:02;14.80;;;10.50;;
12171;SDS011;6149;52.418;13.668;2023-10-13T08:54:00;11.60;;;10.10;;
12171;SDS011;6149;52.418;13.668;2023-10-13T08:56:35;12.67;;;9.67;;
12171;SDS011;6149;52.418;13.668;2023-10-13T08:59:12;10.77;;;9.53;;
12171;SDS011;6149;52.418;13.668;2023-10-13T09:01:49;10.37;;;9.27;;
12171;SDS011;6149;52.418;13.668;2023-10-13T09:04:26;13.40;;;9.30;;
12171;SDS011;6149;52.418;13.668;2023-10-13T09:07:00;12.93;;;8.50;;
12171;SDS011;6149;52.418;13.668;2023-10-13T09:09:45;12.87;;;8.53;;
12171;SDS011;6149;52.418;13.668;2023-10-13T09:12:37;10.87;;;8.33;;
12171;SDS011;6149;52.418;13.668;2023-10-13T09:15:30;9.90;;;8.37;;
12171;SDS011;6149;52.418;13.668;2023-10-13T09:18:22;10.23;;;8.10;;
12171;SDS011;6149;52.418;13.668;2023-10-13T09:21:09;9.57;;;7.70;;
12171;SDS011;6149;52.418;13.668;2023-10-13T09:23:56;8.43;;;7.33;;
12171;SDS011;6149;52.418;13.668;2023-10-13T09:26:42;10.17;;;8.20;;
12171;SDS011;6149;52.418;13.668;2023-10-13T09:29:17;8.97;;;6.67;;
12171;SDS011;6149;52.418;13.668;2023-10-13T09:31:44;12.97;;;8.50;;
12171;SDS011;6149;52.418;13.668;2023-10-13T09:34:20;10.17;;;7.70;;
12171;SDS011;6149;52.418;13.668;2023-10-13T09:36:49;10.27;;;7.47;;
12171;SDS011;6149;52.418;13.668;2023-10-13T09:39:23;10.57;;;6.93;;
12171;SDS011;6149;52.418;13.668;2023-10-13T09:42:06;9.10;;;7.20;;
12171;SDS011;6149;52.418;13.668;2023-10-13T09:44:36;9.77;;;7.80;;
12171;SDS011;6149;52.418;13.668;2023-10-13T09:47:05;10.60;;;8.10;;
12171;SDS011;6149;52.418;13.668;2023-10-13T09:49:43;8.23;;;7.43;;
12171;SDS011;6149;52.418;13.668;2023-10-13T09:52:13;8.93;;;8.00;;
12171;SDS011;6149;52.418;13.668;2023-10-13T09:54:53;9.60;;;7.90;;
12171;SDS011;6149;52.418;13.668;2023-10-13T09:57:41;14.80;;;7.80;;
12171;SDS011;6149;52.418;13.668;2023-10-13T10:00:15;8.83;;;7.37;;
12171;SDS011;6149;52.418;13.668;2023-10-13T10:03:11;10.60;;;8.07;;
12171;SDS011;6149;52.418;13.668;2023-10-13T10:05:56;11.43;;;7.40;;
12171;SDS011;6149;52.418;13.668;2023-10-13T10:08:30;10.07;;;8.83;;
12171;SDS011;6149;52.418;13.668;2023-10-13T10:11:19;11.30;;;8.70;;
12171;SDS011;6149;52.418;13.668;2023-10-13T10:14:40;8.57;;;7.67;;
12171;SDS011;6149;52.418;13.668;2023-10-13T10:17:26;8.90;;;8.00;;
12171;SDS011;6149;52.418;13.668;2023-10-13T10:19:59;11.20;;;8.10;;
12171;SDS011;6149;52.418;13.668;2023-10-13T10:22:33;10.60;;;7.83;;
12171;SDS011;6149;52.418;13.668;2023-10-13T10:25:02;11.23;;;8.17;;
12171;SDS011;6149;52.418;13.668;2023-10-13T10:27:54;10.67;;;8.83;;
12171;SDS011;6149;52.418;13.668;2023-10-13T10:30:26;10.60;;;8.27;;
12171;SDS011;6149;52.418;13.668;2023-10-13T10:33:00;12.20;;;8.77;;
12171;SDS011;6149;52.418;13.668;2023-10-13T10:35:32;10.10;;;8.73;;
12171;SDS011;6149;52.418;13.668;2023-10-13T10:38:10;9.73;;;8.73;;
12171;SDS011;6149;52.418;13.668;2023-10-13T10:40:50;11.13;;;8.73;;
12171;SDS011;6149;52.418;13.668;2023-10-13T10:43:23;12.50;;;8.37;;
12171;SDS011;6149;52.418;13.668;2023-10-13T10:45:56;11.87;;;9.00;;
12171;SDS011;6149;52.418;13.668;2023-10-13T10:48:27;10.07;;;8.33;;
12171;SDS011;6149;52.418;13.668;2023-10-13T10:51:03;9.20;;;8.27;;
12171;SDS011;6149;52.418;13.668;2023-10-13T10:53:39;10.67;;;8.30;;
12171;SDS011;6149;52.418;13.668;2023-10-13T10:56:11;12.10;;;7.93;;
12171;SDS011;6149;52.418;13.668;2023-10-13T10:58:47;11.83;;;8.27;;
12171;SDS011;6149;52.418;13.668;2023-10-13T11:01:16;10.30;;;8.37;;
12171;SDS011;6149;52.418;13.668;2023-10-13T11:03:56;9.97;;;8.50;;
12171;SDS011;6149;52.418;13.668;2023-10-13T11:06:33;8.77;;;7.87;;
12171;SDS011;6149;52.418;13.668;2023-10-13T11:09:07;11.47;;;7.80;;
12171;SDS011;6149;52.418;13.668;2023-10-13T11:11:45;11.40;;;8.43;;
12171;SDS011;6149;52.418;13.668;2023-10-13T11:14:21;8.20;;;7.13;;
12171;SDS011;6149;52.418;13.668;2023-10-13T11:17:02;11.30;;;8.73;;
12171;SDS011;6149;52.418;13.668;2023-10-13T11:19:38;12.47;;;8.97;;
12171;SDS011;6149;52.418;13.668;2023-10-13T11:22:11;10.03;;;8.63;;
12171;SDS011;6149;52.418;13.668;2023-10-13T11:24:55;10.63;;;8.17;;
12171;SDS011;6149;52.418;13.668;2023-10-13T11:27:28;10.77;;;8.37;;
12171;SDS011;6149;52.418;13.668;2023-10-13T11:30:21;9.50;;;8.23;;
12171;SDS011;6149;52.418;13.668;2023-10-13T11:33:02;12.37;;;9.07;;
12171;SDS011;6149;52.418;13.668;2023-10-13T11:35:33;10.10;;;7.93;;
12171;SDS011;6149;52.418;13.668;2023-10-13T11:38:21;13.43;;;8.87;;
12171;SDS011;6149;52.418;13.668;2023-10-13T11:41:02;12.40;;;8.43;;
12171;SDS011;6149;52.418;13.668;2023-10-13T11:43:38;13.37;;;8.80;;
12171;SDS011;6149;52.418;13.668;2023-10-13T11:46:32;10.40;;;8.43;;
12171;SDS011;6149;52.418;13.668;2023-10-13T11:49:22;11.20;;;8.63;;
12171;SDS011;6149;52.418;13.668;2023-10-13T11:52:02;10.53;;;8.70;;
12171;SDS011;6149;52.418;13.668;2023-10-13T11:57:46;11.70;;;8.13;;
12171;SDS011;6149;52.418;13.668;2023-10-13T12:00:16;14.03;;;9.13;;
12171;SDS011;6149;52.418;13.668;2023-10-13T12:03:13;10.87;;;8.67;;
12171;SDS011;6149;52.418;13.668;2023-10-13T12:05:58;9.87;;;8.30;;
12171;SDS011;6149;52.418;13.668;2023-10-13T12:08:45;9.10;;;8.17;;
12171;SDS011;6149;52.418;13.668;2023-10-13T12:11:16;12.67;;;8.20;;
12171;SDS011;6149;52.418;13.668;2023-10-13T12:14:04;12.33;;;8.57;;
12171;SDS011;6149;52.418;13.668;2023-10-13T12:16:43;9.40;;;8.40;;
12171;SDS011;6149;52.418;13.668;2023-10-13T12:19:13;8.90;;;8.00;;
12171;SDS011;6149;52.418;13.668;2023-10-13T12:21:49;9.80;;;7.70;;
12171;SDS011;6149;52.418;13.668;2023-10-13T12:24:21;10.43;;;7.27;;
12171;SDS011;6149;52.418;13.668;2023-10-13T12:27:05;11.37;;;7.60;;
12171;SDS011;6149;52.418;13.668;2023-10-13T12:29:44;11.13;;;7.37;;
12171;SDS011;6149;52.418;13.668;2023-10-13T12:32:12;10.93;;;7.47;;
12171;SDS011;6149;52.418;13.668;2023-10-13T12:34:45;9.70;;;7.43;;
12171;SDS011;6149;52.418;13.668;2023-10-13T12:37:26;11.33;;;6.87;;
12171;SDS011;6149;52.418;13.668;2023-10-13T12:40:20;9.10;;;6.70;;
12171;SDS011;6149;52.418;13.668;2023-10-13T12:43:04;10.97;;;7.20;;
12171;SDS011;6149;52.418;13.668;2023-10-13T12:45:50;12.07;;;7.10;;
12171;SDS011;6149;52.418;13.668;2023-10-13T12:48:37;10.27;;;7.33;;
12171;SDS011;6149;52.418;13.668;2023-10-13T12:51:21;10.17;;;6.47;;
12171;SDS011;6149;52.418;13.668;2023-10-13T12:54:07;11.07;;;7.53;;
12171;SDS011;6149;52.418;13.668;2023-10-13T12:56:39;14.97;;;6.80;;
12171;SDS011;6149;52.418;13.668;2023-10-13T12:59:08;14.23;;;7.20;;
12171;SDS011;6149;52.418;13.668;2023-10-13T13:01:39;11.13;;;6.70;;
12171;SDS011;6149;52.418;13.668;2023-10-13T13:04:08;9.43;;;6.50;;
12171;SDS011;6149;52.418;13.668;2023-10-13T13:06:45;10.73;;;7.13;;
12171;SDS011;6149;52.418;13.668;2023-10-13T13:09:15;12.43;;;6.67;;
12171;SDS011;6149;52.418;13.668;2023-10-13T13:11:51;15.10;;;7.33;;
12171;SDS011;6149;52.418;13.668;2023-10-13T13:14:22;9.80;;;6.70;;
12171;SDS011;6149;52.418;13.668;2023-10-13T13:16:54;13.00;;;6.70;;
12171;SDS011;6149;52.418;13.668;2023-10-13T13:19:31;15.07;;;6.47;;
12171;SDS011;6149;52.418;13.668;2023-10-13T13:22:03;8.67;;;6.17;;
12171;SDS011;6149;52.418;13.668;2023-10-13T13:24:32;8.07;;;6.47;;
12171;SDS011;6149;52.418;13.668;2023-10-13T13:27:00;14.60;;;6.70;;
12171;SDS011;6149;52.418;13.668;2023-10-13T13:29:31;10.90;;;6.33;;
12171;SDS011;6149;52.418;13.668;2023-10-13T13:31:59;10.97;;;6.80;;
12171;SDS011;6149;52.418;13.668;2023-10-13T13:34:26;12.77;;;6.50;;
12171;SDS011;6149;52.418;13.668;2023-10-13T13:36:56;10.20;;;6.63;;
12171;SDS011;6149;52.418;13.668;2023-10-13T13:39:27;11.53;;;6.43;;
12171;SDS011;6149;52.418;13.668;2023-10-13T13:41:58;10.13;;;6.50;;
12171;SDS011;6149;52.418;13.668;2023-10-13T13:44:26;13.70;;;6.77;;
12171;SDS011;6149;52.418;13.668;2023-10-13T13:47:02;11.17;;;6.50;;
12171;SDS011;6149;52.418;13.668;2023-10-13T13:49:37;11.47;;;6.30;;
12171;SDS011;6149;52.418;13.668;2023-10-13T13:52:07;13.47;;;6.17;;
12171;SDS011;6149;52.418;13.668;2023-10-13T13:54:34;10.57;;;6.37;;
12171;SDS011;6149;52.418;13.668;2023-10-13T13:57:07;12.20;;;6.90;;
12171;SDS011;6149;52.418;13.668;2023-10-13T13:59:33;10.53;;;6.63;;
12171;SDS011;6149;52.418;13.668;2023-10-13T14:02:02;15.03;;;6.73;;
12171;SDS011;6149;52.418;13.668;2023-10-13T14:04:46;16.37;;;6.33;;
12171;SDS011;6149;52.418;13.668;2023-10-13T14:07:17;9.53;;;6.10;;
12171;SDS011;6149;52.418;13.668;2023-10-13T14:09:45;12.47;;;6.63;;
12171;SDS011;6149;52.418;13.668;2023-10-13T14:12:19;10.77;;;6.23;;
12171;SDS011;6149;52.418;13.668;2023-10-13T14:14:56;13.07;;;5.97;;
12171;SDS011;6149;52.418;13.668;2023-10-13T14:17:23;10.77;;;6.33;;
12171;SDS011;6149;52.418;13.668;2023-10-13T14:19:56;10.60;;;5.70;;
12171;SDS011;6149;52.418;13.668;2023-10-13T14:22:23;10.73;;;5.93;;
12171;SDS011;6149;52.418;13.668;2023-10-13T14:24:54;13.43;;;6.00;;
12171;SDS011;6149;52.418;13.668;2023-10-13T14:27:37;12.77;;;6.53;;
12171;SDS011;6149;52.418;13.668;2023-10-13T14:30:06;8.87;;;5.93;;
12171;SDS011;6149;52.418;13.668;2023-10-13T14:32:34;12.67;;;5.90;;
12171;SDS011;6149;52.418;13.668;2023-10-13T14:35:07;14.47;;;6.30;;
12171;SDS011;6149;52.418;13.668;2023-10-13T14:37:39;12.63;;;6.30;;
12171;SDS011;6149;52.418;13.668;2023-10-13T14:40:08;11.00;;;5.57;;
12171;SDS011;6149;52.418;13.668;2023-10-13T14:42:40;12.30;;;6.23;;
12171;SDS011;6149;52.418;13.668;2023-10-13T14:45:06;9.40;;;5.70;;
12171;SDS011;6149;52.418;13.668;2023-10-13T14:47:38;8.83;;;5.90;;
12171;SDS011;6149;52.418;13.668;2023-10-13T14:50:08;12.93;;;6.50;;
12171;SDS011;6149;52.418;13.668;2023-10-13T14:52:42;11.63;;;6.23;;
12171;SDS011;6149;52.418;13.668;2023-10-13T14:55:09;11.77;;;6.40;;
12171;SDS011;6149;52.418;13.668;2023-10-13T14:57:48;11.83;;;6.20;;
12171;SDS011;6149;52.418;13.668;2023-10-13T15:00:20;14.80;;;6.20;;
12171;SDS011;6149;52.418;13.668;2023-10-13T15:02:58;13.03;;;6.77;;
12171;SDS011;6149;52.418;13.668;2023-10-13T15:05:28;13.47;;;6.40;;
12171;SDS011;6149;52.418;13.668;2023-10-13T15:07:57;14.63;;;6.80;;
12171;SDS011;6149;52.418;13.668;2023-10-13T15:10:28;12.57;;;6.30;;
12171;SDS011;6149;52.418;13.668;2023-10-13T15:12:58;9.63;;;6.60;;
12171;SDS011;6149;52.418;13.668;2023-10-13T15:15:29;10.60;;;6.57;;
12171;SDS011;6149;52.418;13.668;2023-10-13T15:17:57;10.57;;;6.17;;
12171;SDS011;6149;52.418;13.668;2023-10-13T15:20:27;17.13;;;6.50;;
12171;SDS011;6149;52.418;13.668;2023-10-13T15:22:55;10.70;;;6.40;;
12171;SDS011;6149;52.418;13.668;2023-10-13T15:25:25;13.80;;;6.83;;
12171;SDS011;6149;52.418;13.668;2023-10-13T15:28:05;10.03;;;6.20;;